Date,TemperatureHighF,TemperatureAvgF,TemperatureLowF,DewpointHighF,DewpointAvgF,DewpointLowF,HumidityHigh,HumidityAvg,HumidityLow,PressureMaxIn,PressureMinIn,WindSpeedMaxMPH,WindSpeedAvgMPH,GustSpeedMaxMPH,PrecipitationSumIn
2013-3-1,38,34,29,-100,-100,-100,0,0,100,0.00,40.00,0,-999,0,0.05
2013-3-2,37,33,29,-100,-100,-100,0,0,100,0.00,40.00,0,-999,0,0.02
2013-3-3,34,30,26,-100,-100,-100,0,0,100,0.00,40.00,0,-999,0,0.01
2013-3-4,35,30,26,-100,-100,-100,0,0,100,0.00,40.00,0,-999,0,0.04
2013-3-5,41,33,27,-100,-100,-100,0,0,100,0.00,40.00,0,-999,0,0.12
2013-3-6,37,34,31,-100,-100,-100,0,0,100,0.00,40.00,0,-999,0,0.06
2013-3-7,34,32,31,-100,-100,-100,0,0,100,0.00,40.00,0,-999,0,0.09
2013-3-8,39,33,29,-100,-100,-100,0,0,100,0.00,40.00,0,-999,0,0.17
2013-3-9,52,38,27,-100,-100,-100,0,0,100,0.00,40.00,0,-999,0,0.01
2013-3-10,52,36,22,-100,-100,-100,0,0,100,0.00,40.00,0,-999,0,0.01
2013-3-11,47,40,34,-100,-100,-100,0,0,100,0.00,40.00,0,-999,0,0.01
2013-3-12,51,46,40,-100,-100,-100,0,0,100,0.00,40.00,0,-999,0,0.90
2013-3-13,44,38,28,-100,-100,-100,0,0,100,0.00,40.00,0,-999,0,0.83
2013-3-14,31,27,20,-100,-100,-100,0,0,100,0.00,40.00,0,-999,0,22.72
2013-3-15,37,26,17,-100,-100,-100,0,0,100,0.00,40.00,0,-999,0,0.17
2013-3-16,33,29,23,-100,-100,-100,0,0,100,0.00,40.00,0,-999,0,0.17
2013-3-17,30,25,18,-100,-100,-100,0,0,100,0.00,40.00,0,-999,0,0.00
2013-3-18,37,25,11,-100,-100,-100,0,0,100,0.00,40.00,0,-999,0,0.05
2013-3-19,34,30,27,-100,-100,-100,0,0,100,0.00,40.00,0,-999,0,0.70
2013-3-20,34,27,19,-100,-100,-100,0,0,100,0.00,40.00,0,-999,0,0.03
2013-3-21,37,24,7,-100,-100,-100,0,0,100,0.00,40.00,0,-999,0,16.67
2013-3-22,37,28,15,-100,-100,-100,0,0,100,0.00,40.00,0,-999,0,0.60
2013-3-23,38,30,15,-100,-100,-100,0,0,100,0.00,40.00,0,-999,0,0.01
2013-3-24,40,35,29,-100,-100,-100,0,0,100,0.00,40.00,0,-999,0,0.02
2013-3-25,41,34,26,-100,-100,-100,0,0,100,0.00,40.00,0,-999,0,0.07
2013-3-26,43,36,30,-100,-100,-100,0,0,100,0.00,40.00,0,-999,0,0.05
2013-3-27,47,36,22,-100,-100,-100,0,0,100,0.00,40.00,0,-999,0,0.05
2013-3-28,47,39,33,-100,-100,-100,0,0,100,0.00,40.00,0,-999,0,0.03
2013-3-29,49,39,29,-100,-100,-100,0,0,100,0.00,40.00,0,-999,0,0.01
2013-3-30,50,38,29,-100,-100,-100,0,0,100,0.00,40.00,0,-999,0,0.01
2013-3-31,54,39,24,-100,-100,-100,0,0,100,0.00,40.00,0,-999,0,0.08